sensor_id;sensor_type;location;lat;lon;timestamp;temperature;humidity
5009;DHT22;2523;51.058;6.922;2022-09-13T00:00:06;18.20;99.90
5009;DHT22;2523;51.058;6.922;2022-09-13T00:02:32;18.20;99.90
5009;DHT22;2523;51.058;6.922;2022-09-13T00:04:58;18.20;99.90
5009;DHT22;2523;51.058;6.922;2022-09-13T00:07:23;18.20;99.90
5009;DHT22;2523;51.058;6.922;2022-09-13T00:09:49;18.20;99.90
5009;DHT22;2523;51.058;6.922;2022-09-13T00:12:15;18.20;99.90
5009;DHT22;2523;51.058;6.922;2022-09-13T00:14:40;18.20;99.90
5009;DHT22;2523;51.058;6.922;2022-09-13T00:17:06;18.20;99.90
5009;DHT22;2523;51.058;6.922;2022-09-13T00:19:32;18.20;99.90
5009;DHT22;2523;51.058;6.922;2022-09-13T00:21:58;18.20;99.90
5009;DHT22;2523;51.058;6.922;2022-09-13T00:24:23;18.20;99.90
5009;DHT22;2523;51.058;6.922;2022-09-13T00:26:49;18.20;99.90
5009;DHT22;2523;51.058;6.922;2022-09-13T00:29:14;18.20;99.90
5009;DHT22;2523;51.058;6.922;2022-09-13T00:31:40;18.10;99.90
5009;DHT22;2523;51.058;6.922;2022-09-13T00:34:06;18.10;99.90
5009;DHT22;2523;51.058;6.922;2022-09-13T00:36:31;18.10;99.90
5009;DHT22;2523;51.058;6.922;2022-09-13T00:38:59;18.10;99.90
5009;DHT22;2523;51.058;6.922;2022-09-13T00:41:25;18.10;99.90
5009;DHT22;2523;51.058;6.922;2022-09-13T00:43:56;18.10;99.90
5009;DHT22;2523;51.058;6.922;2022-09-13T00:46:33;18.10;99.90
5009;DHT22;2523;51.058;6.922;2022-09-13T00:49:21;18.00;99.90
5009;DHT22;2523;51.058;6.922;2022-09-13T00:51:53;18.00;99.90
5009;DHT22;2523;51.058;6.922;2022-09-13T00:54:23;18.10;99.90
5009;DHT22;2523;51.058;6.922;2022-09-13T00:56:55;18.10;99.90
5009;DHT22;2523;51.058;6.922;2022-09-13T00:59:25;18.10;99.90
5009;DHT22;2523;51.058;6.922;2022-09-13T01:01:55;18.10;99.90
5009;DHT22;2523;51.058;6.922;2022-09-13T01:04:25;18.10;99.90
5009;DHT22;2523;51.058;6.922;2022-09-13T01:06:54;18.10;99.90
5009;DHT22;2523;51.058;6.922;2022-09-13T01:09:22;18.00;99.90
5009;DHT22;2523;51.058;6.922;2022-09-13T01:11:58;18.00;99.90
5009;DHT22;2523;51.058;6.922;2022-09-13T01:14:29;18.00;99.90
5009;DHT22;2523;51.058;6.922;2022-09-13T01:16:55;18.00;99.90
5009;DHT22;2523;51.058;6.922;2022-09-13T01:19:21;18.00;99.90
5009;DHT22;2523;51.058;6.922;2022-09-13T01:27:48;17.90;99.90
5009;DHT22;2523;51.058;6.922;2022-09-13T01:30:28;17.90;99.90
5009;DHT22;2523;51.058;6.922;2022-09-13T01:36:14;18.00;99.90
5009;DHT22;2523;51.058;6.922;2022-09-13T01:39:01;17.90;99.90
5009;DHT22;2523;51.058;6.922;2022-09-13T01:49:44;17.80;99.90
5009;DHT22;2523;51.058;6.922;2022-09-13T01:52:20;17.80;99.90
5009;DHT22;2523;51.058;6.922;2022-09-13T01:55:07;17.70;99.90
5009;DHT22;2523;51.058;6.922;2022-09-13T01:57:57;17.70;99.90
5009;DHT22;2523;51.058;6.922;2022-09-13T02:00:29;17.70;99.90
5009;DHT22;2523;51.058;6.922;2022-09-13T02:03:22;17.60;99.90
5009;DHT22;2523;51.058;6.922;2022-09-13T02:06:00;17.60;99.90
5009;DHT22;2523;51.058;6.922;2022-09-13T02:08:42;17.60;99.90
5009;DHT22;2523;51.058;6.922;2022-09-13T02:11:12;17.60;99.90
5009;DHT22;2523;51.058;6.922;2022-09-13T02:13:45;17.60;99.90
5009;DHT22;2523;51.058;6.922;2022-09-13T02:16:17;17.60;99.90
5009;DHT22;2523;51.058;6.922;2022-09-13T02:18:48;17.60;99.90
5009;DHT22;2523;51.058;6.922;2022-09-13T02:21:19;17.60;99.90
5009;DHT22;2523;51.058;6.922;2022-09-13T02:23:49;17.70;99.90
5009;DHT22;2523;51.058;6.922;2022-09-13T02:26:18;17.70;99.90
5009;DHT22;2523;51.058;6.922;2022-09-13T02:28:50;17.70;99.90
5009;DHT22;2523;51.058;6.922;2022-09-13T02:31:23;17.70;99.90
5009;DHT22;2523;51.058;6.922;2022-09-13T02:33:57;17.70;99.90
5009;DHT22;2523;51.058;6.922;2022-09-13T02:36:31;17.70;99.90
5009;DHT22;2523;51.058;6.922;2022-09-13T02:39:17;17.80;99.90
5009;DHT22;2523;51.058;6.922;2022-09-13T02:44:52;17.80;99.90
5009;DHT22;2523;51.058;6.922;2022-09-13T02:52:48;17.90;99.90
5009;DHT22;2523;51.058;6.922;2022-09-13T02:55:26;17.90;99.90
5009;DHT22;2523;51.058;6.922;2022-09-13T02:58:27;17.90;99.90
5009;DHT22;2523;51.058;6.922;2022-09-13T03:00:56;17.80;99.90
5009;DHT22;2523;51.058;6.922;2022-09-13T03:03:23;17.90;99.90
5009;DHT22;2523;51.058;6.922;2022-09-13T03:05:48;17.90;99.90
5009;DHT22;2523;51.058;6.922;2022-09-13T03:08:15;17.80;99.90
5009;DHT22;2523;51.058;6.922;2022-09-13T03:11:12;17.80;99.90
5009;DHT22;2523;51.058;6.922;2022-09-13T03:16:28;17.90;99.90
5009;DHT22;2523;51.058;6.922;2022-09-13T03:24:50;17.90;99.90
5009;DHT22;2523;51.058;6.922;2022-09-13T03:27:34;17.80;99.90
5009;DHT22;2523;51.058;6.922;2022-09-13T03:30:06;17.80;99.90
5009;DHT22;2523;51.058;6.922;2022-09-13T03:32:45;17.80;99.90
5009;DHT22;2523;51.058;6.922;2022-09-13T03:40:47;17.80;99.90
5009;DHT22;2523;51.058;6.922;2022-09-13T03:45:51;17.80;99.90
5009;DHT22;2523;51.058;6.922;2022-09-13T03:48:18;17.80;99.90
5009;DHT22;2523;51.058;6.922;2022-09-13T03:50:46;17.80;99.90
5009;DHT22;2523;51.058;6.922;2022-09-13T03:53:17;17.80;99.90
5009;DHT22;2523;51.058;6.922;2022-09-13T03:55:44;17.70;99.90
5009;DHT22;2523;51.058;6.922;2022-09-13T03:58:15;17.70;99.90
5009;DHT22;2523;51.058;6.922;2022-09-13T04:00:41;17.80;99.90
5009;DHT22;2523;51.058;6.922;2022-09-13T04:03:07;17.80;99.90
5009;DHT22;2523;51.058;6.922;2022-09-13T04:05:33;17.80;99.90
5009;DHT22;2523;51.058;6.922;2022-09-13T04:07:59;17.80;99.90
5009;DHT22;2523;51.058;6.922;2022-09-13T04:10:26;17.80;99.90
5009;DHT22;2523;51.058;6.922;2022-09-13T04:12:53;17.70;99.90
5009;DHT22;2523;51.058;6.922;2022-09-13T04:15:19;17.70;99.90
5009;DHT22;2523;51.058;6.922;2022-09-13T04:17:44;17.70;99.90
5009;DHT22;2523;51.058;6.922;2022-09-13T04:20:10;17.70;99.90
5009;DHT22;2523;51.058;6.922;2022-09-13T04:22:35;17.60;99.90
5009;DHT22;2523;51.058;6.922;2022-09-13T04:25:01;17.60;99.90
5009;DHT22;2523;51.058;6.922;2022-09-13T04:27:27;17.50;99.90
5009;DHT22;2523;51.058;6.922;2022-09-13T04:29:52;17.50;99.90
5009;DHT22;2523;51.058;6.922;2022-09-13T04:32:18;17.40;99.90
5009;DHT22;2523;51.058;6.922;2022-09-13T04:34:43;17.40;99.90
5009;DHT22;2523;51.058;6.922;2022-09-13T04:37:09;17.40;99.90
5009;DHT22;2523;51.058;6.922;2022-09-13T04:39:35;17.40;99.90
5009;DHT22;2523;51.058;6.922;2022-09-13T04:42:01;17.40;99.90
5009;DHT22;2523;51.058;6.922;2022-09-13T04:44:26;17.40;99.90
5009;DHT22;2523;51.058;6.922;2022-09-13T04:46:52;17.40;99.90
5009;DHT22;2523;51.058;6.922;2022-09-13T04:49:18;17.40;99.90
5009;DHT22;2523;51.058;6.922;2022-09-13T04:51:44;17.50;99.90
5009;DHT22;2523;51.058;6.922;2022-09-13T04:54:10;17.40;99.90
5009;DHT22;2523;51.058;6.922;2022-09-13T04:56:37;17.40;99.90
5009;DHT22;2523;51.058;6.922;2022-09-13T04:59:02;17.50;99.90
5009;DHT22;2523;51.058;6.922;2022-09-13T05:01:28;17.50;99.90
5009;DHT22;2523;51.058;6.922;2022-09-13T05:03:54;17.50;99.90
5009;DHT22;2523;51.058;6.922;2022-09-13T05:06:20;17.50;99.90
5009;DHT22;2523;51.058;6.922;2022-09-13T05:08:51;17.50;99.90
5009;DHT22;2523;51.058;6.922;2022-09-13T05:11:19;17.50;99.90
5009;DHT22;2523;51.058;6.922;2022-09-13T05:13:49;17.50;99.90
5009;DHT22;2523;51.058;6.922;2022-09-13T05:16:17;17.50;99.90
5009;DHT22;2523;51.058;6.922;2022-09-13T05:18:43;17.60;99.90
5009;DHT22;2523;51.058;6.922;2022-09-13T05:21:08;17.60;99.90
5009;DHT22;2523;51.058;6.922;2022-09-13T05:23:34;17.60;99.90
5009;DHT22;2523;51.058;6.922;2022-09-13T05:26:02;17.60;99.90
5009;DHT22;2523;51.058;6.922;2022-09-13T05:28:29;17.60;99.90
5009;DHT22;2523;51.058;6.922;2022-09-13T05:31:00;17.60;99.90
5009;DHT22;2523;51.058;6.922;2022-09-13T05:33:28;17.60;99.90
5009;DHT22;2523;51.058;6.922;2022-09-13T05:35:54;17.60;99.90
5009;DHT22;2523;51.058;6.922;2022-09-13T05:38:20;17.60;99.90
5009;DHT22;2523;51.058;6.922;2022-09-13T05:40:45;17.60;99.90
5009;DHT22;2523;51.058;6.922;2022-09-13T05:43:12;17.60;99.90
5009;DHT22;2523;51.058;6.922;2022-09-13T05:45:38;17.70;99.90
5009;DHT22;2523;51.058;6.922;2022-09-13T05:48:03;17.70;99.90
5009;DHT22;2523;51.058;6.922;2022-09-13T05:50:29;17.70;99.90
5009;DHT22;2523;51.058;6.922;2022-09-13T05:52:55;17.80;99.90
5009;DHT22;2523;51.058;6.922;2022-09-13T05:55:22;17.80;99.90
5009;DHT22;2523;51.058;6.922;2022-09-13T05:57:48;17.80;99.90
5009;DHT22;2523;51.058;6.922;2022-09-13T06:00:14;17.80;99.90
5009;DHT22;2523;51.058;6.922;2022-09-13T06:02:40;17.80;99.90
5009;DHT22;2523;51.058;6.922;2022-09-13T06:05:07;17.90;99.90
5009;DHT22;2523;51.058;6.922;2022-09-13T06:07:35;17.90;99.90
5009;DHT22;2523;51.058;6.922;2022-09-13T06:10:01;17.90;99.90
5009;DHT22;2523;51.058;6.922;2022-09-13T06:12:27;18.00;99.90
5009;DHT22;2523;51.058;6.922;2022-09-13T06:14:52;17.90;99.90
5009;DHT22;2523;51.058;6.922;2022-09-13T06:17:18;18.00;99.90
5009;DHT22;2523;51.058;6.922;2022-09-13T06:19:43;18.00;99.90
5009;DHT22;2523;51.058;6.922;2022-09-13T06:22:09;18.10;99.90
5009;DHT22;2523;51.058;6.922;2022-09-13T06:24:35;18.10;99.90
5009;DHT22;2523;51.058;6.922;2022-09-13T06:27:02;18.10;99.90
5009;DHT22;2523;51.058;6.922;2022-09-13T06:29:28;18.20;99.90
5009;DHT22;2523;51.058;6.922;2022-09-13T06:31:54;18.20;99.90
5009;DHT22;2523;51.058;6.922;2022-09-13T06:34:19;18.30;99.90
5009;DHT22;2523;51.058;6.922;2022-09-13T06:36:45;18.30;99.90
5009;DHT22;2523;51.058;6.922;2022-09-13T06:39:10;18.40;99.90
5009;DHT22;2523;51.058;6.922;2022-09-13T06:41:36;18.40;99.90
5009;DHT22;2523;51.058;6.922;2022-09-13T06:44:02;18.50;99.90
5009;DHT22;2523;51.058;6.922;2022-09-13T06:46:30;18.50;99.90
5009;DHT22;2523;51.058;6.922;2022-09-13T06:48:59;18.50;99.90
5009;DHT22;2523;51.058;6.922;2022-09-13T06:51:25;18.60;99.90
5009;DHT22;2523;51.058;6.922;2022-09-13T06:53:52;18.60;99.90
5009;DHT22;2523;51.058;6.922;2022-09-13T06:56:22;18.70;99.90
5009;DHT22;2523;51.058;6.922;2022-09-13T06:58:50;18.70;99.90
5009;DHT22;2523;51.058;6.922;2022-09-13T07:01:18;18.70;99.90
5009;DHT22;2523;51.058;6.922;2022-09-13T07:03:47;18.70;99.90
5009;DHT22;2523;51.058;6.922;2022-09-13T07:06:15;18.80;99.90
5009;DHT22;2523;51.058;6.922;2022-09-13T07:08:42;18.70;99.90
5009;DHT22;2523;51.058;6.922;2022-09-13T07:11:09;18.70;99.90
5009;DHT22;2523;51.058;6.922;2022-09-13T07:13:35;18.70;99.90
5009;DHT22;2523;51.058;6.922;2022-09-13T07:16:10;18.70;99.90
5009;DHT22;2523;51.058;6.922;2022-09-13T07:18:36;18.70;99.90
5009;DHT22;2523;51.058;6.922;2022-09-13T07:21:05;18.80;99.90
5009;DHT22;2523;51.058;6.922;2022-09-13T07:23:31;18.80;99.90
5009;DHT22;2523;51.058;6.922;2022-09-13T07:25:57;18.80;99.90
5009;DHT22;2523;51.058;6.922;2022-09-13T07:28:31;18.90;99.90
5009;DHT22;2523;51.058;6.922;2022-09-13T07:31:10;18.80;99.90
5009;DHT22;2523;51.058;6.922;2022-09-13T07:33:37;18.90;99.90
5009;DHT22;2523;51.058;6.922;2022-09-13T07:36:04;19.00;99.90
5009;DHT22;2523;51.058;6.922;2022-09-13T07:38:34;19.00;99.90
5009;DHT22;2523;51.058;6.922;2022-09-13T07:41:01;19.00;99.90
5009;DHT22;2523;51.058;6.922;2022-09-13T07:43:27;19.10;99.90
5009;DHT22;2523;51.058;6.922;2022-09-13T07:46:04;19.20;99.90
5009;DHT22;2523;51.058;6.922;2022-09-13T07:48:32;19.20;99.90
5009;DHT22;2523;51.058;6.922;2022-09-13T07:51:13;19.20;99.90
5009;DHT22;2523;51.058;6.922;2022-09-13T07:53:40;19.30;99.90
5009;DHT22;2523;51.058;6.922;2022-09-13T07:58:42;19.40;99.90
5009;DHT22;2523;51.058;6.922;2022-09-13T08:01:18;19.50;99.90
5009;DHT22;2523;51.058;6.922;2022-09-13T08:03:53;19.50;99.90
5009;DHT22;2523;51.058;6.922;2022-09-13T08:06:19;19.60;99.90
5009;DHT22;2523;51.058;6.922;2022-09-13T08:08:45;19.70;99.90
5009;DHT22;2523;51.058;6.922;2022-09-13T08:11:19;19.80;99.90
5009;DHT22;2523;51.058;6.922;2022-09-13T08:13:46;20.00;99.90
5009;DHT22;2523;51.058;6.922;2022-09-13T08:16:11;20.10;99.90
5009;DHT22;2523;51.058;6.922;2022-09-13T08:18:42;20.20;99.90
5009;DHT22;2523;51.058;6.922;2022-09-13T08:21:08;20.20;99.90
5009;DHT22;2523;51.058;6.922;2022-09-13T08:23:34;20.30;99.90
5009;DHT22;2523;51.058;6.922;2022-09-13T08:26:00;20.40;99.90
5009;DHT22;2523;51.058;6.922;2022-09-13T08:28:27;20.40;99.90
5009;DHT22;2523;51.058;6.922;2022-09-13T08:30:52;20.50;99.90
5009;DHT22;2523;51.058;6.922;2022-09-13T08:33:18;20.60;99.90
5009;DHT22;2523;51.058;6.922;2022-09-13T08:35:51;20.70;99.90
5009;DHT22;2523;51.058;6.922;2022-09-13T08:38:17;20.80;99.90
5009;DHT22;2523;51.058;6.922;2022-09-13T08:40:49;20.90;99.90
5009;DHT22;2523;51.058;6.922;2022-09-13T08:43:37;21.00;99.90
5009;DHT22;2523;51.058;6.922;2022-09-13T08:48:41;21.20;99.90
5009;DHT22;2523;51.058;6.922;2022-09-13T08:51:50;21.40;99.90
5009;DHT22;2523;51.058;6.922;2022-09-13T08:54:11;21.60;99.90
5009;DHT22;2523;51.058;6.922;2022-09-13T08:56:39;21.70;99.90
5009;DHT22;2523;51.058;6.922;2022-09-13T08:59:23;21.80;99.90
5009;DHT22;2523;51.058;6.922;2022-09-13T09:07:21;22.40;99.90
5009;DHT22;2523;51.058;6.922;2022-09-13T09:10:01;22.50;99.90
5009;DHT22;2523;51.058;6.922;2022-09-13T09:12:37;22.50;99.90
5009;DHT22;2523;51.058;6.922;2022-09-13T09:15:26;22.40;99.90
5009;DHT22;2523;51.058;6.922;2022-09-13T09:18:01;22.60;99.90
5009;DHT22;2523;51.058;6.922;2022-09-13T09:20:33;22.70;99.90
5009;DHT22;2523;51.058;6.922;2022-09-13T09:23:24;22.90;99.90
5009;DHT22;2523;51.058;6.922;2022-09-13T09:25:55;22.70;99.90
5009;DHT22;2523;51.058;6.922;2022-09-13T09:28:21;23.00;99.90
5009;DHT22;2523;51.058;6.922;2022-09-13T09:33:39;23.10;99.90
5009;DHT22;2523;51.058;6.922;2022-09-13T09:36:24;23.50;99.90
5009;DHT22;2523;51.058;6.922;2022-09-13T09:38:53;23.40;99.90
5009;DHT22;2523;51.058;6.922;2022-09-13T09:41:29;23.30;99.90
5009;DHT22;2523;51.058;6.922;2022-09-13T09:46:54;23.30;99.90
5009;DHT22;2523;51.058;6.922;2022-09-13T09:49:29;23.70;99.90
5009;DHT22;2523;51.058;6.922;2022-09-13T09:52:18;23.70;99.90
5009;DHT22;2523;51.058;6.922;2022-09-13T09:54:48;23.90;99.90
5009;DHT22;2523;51.058;6.922;2022-09-13T09:57:15;24.00;99.90
5009;DHT22;2523;51.058;6.922;2022-09-13T09:59:43;24.30;99.90
5009;DHT22;2523;51.058;6.922;2022-09-13T10:02:19;24.40;99.80
5009;DHT22;2523;51.058;6.922;2022-09-13T10:04:56;24.60;99.20
5009;DHT22;2523;51.058;6.922;2022-09-13T10:07:34;24.80;99.90
5009;DHT22;2523;51.058;6.922;2022-09-13T10:10:20;25.20;97.50
5009;DHT22;2523;51.058;6.922;2022-09-13T10:12:52;25.50;90.20
5009;DHT22;2523;51.058;6.922;2022-09-13T10:15:23;25.40;96.10
5009;DHT22;2523;51.058;6.922;2022-09-13T10:18:13;25.70;93.40
5009;DHT22;2523;51.058;6.922;2022-09-13T10:20:41;25.60;83.80
5009;DHT22;2523;51.058;6.922;2022-09-13T10:23:17;25.60;90.20
5009;DHT22;2523;51.058;6.922;2022-09-13T10:26:06;26.00;90.90
5009;DHT22;2523;51.058;6.922;2022-09-13T10:28:35;26.10;80.40
5009;DHT22;2523;51.058;6.922;2022-09-13T10:31:05;26.40;74.30
5009;DHT22;2523;51.058;6.922;2022-09-13T10:33:39;26.50;66.50
5009;DHT22;2523;51.058;6.922;2022-09-13T10:36:14;26.60;65.80
5009;DHT22;2523;51.058;6.922;2022-09-13T10:38:43;27.00;64.60
5009;DHT22;2523;51.058;6.922;2022-09-13T10:41:28;27.50;59.90
5009;DHT22;2523;51.058;6.922;2022-09-13T10:44:03;27.80;56.90
5009;DHT22;2523;51.058;6.922;2022-09-13T10:46:33;28.10;57.80
5009;DHT22;2523;51.058;6.922;2022-09-13T10:49:00;27.80;52.90
5009;DHT22;2523;51.058;6.922;2022-09-13T10:54:07;26.90;53.80
5009;DHT22;2523;51.058;6.922;2022-09-13T10:56:32;26.80;59.50
5009;DHT22;2523;51.058;6.922;2022-09-13T11:07:32;27.10;55.10
5009;DHT22;2523;51.058;6.922;2022-09-13T11:13:01;26.90;56.60
5009;DHT22;2523;51.058;6.922;2022-09-13T11:18:38;26.90;57.70
5009;DHT22;2523;51.058;6.922;2022-09-13T11:21:35;27.00;55.30
5009;DHT22;2523;51.058;6.922;2022-09-13T11:26:51;27.00;56.30
5009;DHT22;2523;51.058;6.922;2022-09-13T11:29:28;27.00;55.40
5009;DHT22;2523;51.058;6.922;2022-09-13T11:32:31;26.80;58.50
5009;DHT22;2523;51.058;6.922;2022-09-13T11:40:49;27.00;57.40
5009;DHT22;2523;51.058;6.922;2022-09-13T11:49:30;27.90;54.60
5009;DHT22;2523;51.058;6.922;2022-09-13T11:52:02;27.80;53.80
5009;DHT22;2523;51.058;6.922;2022-09-13T11:57:14;27.20;53.30
5009;DHT22;2523;51.058;6.922;2022-09-13T11:59:44;27.50;54.30
5009;DHT22;2523;51.058;6.922;2022-09-13T12:07:32;28.60;49.60
5009;DHT22;2523;51.058;6.922;2022-09-13T12:10:06;29.20;48.40
5009;DHT22;2523;51.058;6.922;2022-09-13T12:12:38;29.60;46.10
5009;DHT22;2523;51.058;6.922;2022-09-13T12:15:13;29.60;46.40
5009;DHT22;2523;51.058;6.922;2022-09-13T12:17:50;29.60;46.60
5009;DHT22;2523;51.058;6.922;2022-09-13T12:20:41;29.40;46.90
5009;DHT22;2523;51.058;6.922;2022-09-13T12:23:14;29.70;46.30
5009;DHT22;2523;51.058;6.922;2022-09-13T12:25:53;30.10;41.90
5009;DHT22;2523;51.058;6.922;2022-09-13T12:28:27;30.10;46.00
5009;DHT22;2523;51.058;6.922;2022-09-13T12:31:08;30.70;41.70
5009;DHT22;2523;51.058;6.922;2022-09-13T12:33:39;30.80;45.40
5009;DHT22;2523;51.058;6.922;2022-09-13T12:36:16;31.30;41.30
5009;DHT22;2523;51.058;6.922;2022-09-13T12:39:00;31.20;39.50
5009;DHT22;2523;51.058;6.922;2022-09-13T12:41:59;30.80;38.30
5009;DHT22;2523;51.058;6.922;2022-09-13T12:44:44;30.40;38.90
5009;DHT22;2523;51.058;6.922;2022-09-13T12:50:12;30.00;41.20
5009;DHT22;2523;51.058;6.922;2022-09-13T12:55:50;30.20;42.30
5009;DHT22;2523;51.058;6.922;2022-09-13T12:58:44;30.40;41.40
5009;DHT22;2523;51.058;6.922;2022-09-13T13:01:19;30.50;42.20
5009;DHT22;2523;51.058;6.922;2022-09-13T13:04:13;30.90;42.10
5009;DHT22;2523;51.058;6.922;2022-09-13T13:06:50;31.20;39.90
5009;DHT22;2523;51.058;6.922;2022-09-13T13:11:49;31.10;37.50
5009;DHT22;2523;51.058;6.922;2022-09-13T13:17:35;31.30;39.90
5009;DHT22;2523;51.058;6.922;2022-09-13T13:37:04;28.60;40.80
5009;DHT22;2523;51.058;6.922;2022-09-13T13:39:31;28.40;41.90
5009;DHT22;2523;51.058;6.922;2022-09-13T14:06:09;27.20;54.90
5009;DHT22;2523;51.058;6.922;2022-09-13T14:22:18;26.90;56.80
5009;DHT22;2523;51.058;6.922;2022-09-13T14:29:47;26.80;59.00
5009;DHT22;2523;51.058;6.922;2022-09-13T14:32:17;26.80;56.30
5009;DHT22;2523;51.058;6.922;2022-09-13T14:35:01;26.80;58.80
5009;DHT22;2523;51.058;6.922;2022-09-13T14:37:34;26.70;56.60
5009;DHT22;2523;51.058;6.922;2022-09-13T14:40:18;26.80;55.10
5009;DHT22;2523;51.058;6.922;2022-09-13T14:42:46;26.80;57.70
5009;DHT22;2523;51.058;6.922;2022-09-13T14:45:14;26.70;63.00
5009;DHT22;2523;51.058;6.922;2022-09-13T14:48:06;26.70;65.30
5009;DHT22;2523;51.058;6.922;2022-09-13T14:50:41;26.70;63.20
5009;DHT22;2523;51.058;6.922;2022-09-13T14:53:26;26.70;58.50
5009;DHT22;2523;51.058;6.922;2022-09-13T14:55:56;26.60;54.70
5009;DHT22;2523;51.058;6.922;2022-09-13T14:58:41;26.70;58.50
5009;DHT22;2523;51.058;6.922;2022-09-13T15:01:13;26.50;59.80
5009;DHT22;2523;51.058;6.922;2022-09-13T15:03:44;26.50;58.40
5009;DHT22;2523;51.058;6.922;2022-09-13T15:06:22;26.50;59.20
5009;DHT22;2523;51.058;6.922;2022-09-13T15:08:48;26.40;63.20
5009;DHT22;2523;51.058;6.922;2022-09-13T15:11:26;26.50;63.90
5009;DHT22;2523;51.058;6.922;2022-09-13T15:16:47;26.40;68.60
5009;DHT22;2523;51.058;6.922;2022-09-13T15:19:29;26.30;68.80
5009;DHT22;2523;51.058;6.922;2022-09-13T15:24:42;26.10;60.20
5009;DHT22;2523;51.058;6.922;2022-09-13T15:27:21;26.10;69.20
5009;DHT22;2523;51.058;6.922;2022-09-13T15:29:56;25.90;77.50
5009;DHT22;2523;51.058;6.922;2022-09-13T15:32:32;25.70;90.10
5009;DHT22;2523;51.058;6.922;2022-09-13T15:34:59;25.60;90.10
5009;DHT22;2523;51.058;6.922;2022-09-13T15:37:31;25.60;95.50
5009;DHT22;2523;51.058;6.922;2022-09-13T15:40:21;25.50;96.20
5009;DHT22;2523;51.058;6.922;2022-09-13T15:42:48;25.50;97.30
5009;DHT22;2523;51.058;6.922;2022-09-13T15:45:15;25.30;98.30
5009;DHT22;2523;51.058;6.922;2022-09-13T15:47:43;25.20;99.90
5009;DHT22;2523;51.058;6.922;2022-09-13T15:50:22;25.20;99.90
5009;DHT22;2523;51.058;6.922;2022-09-13T15:52:48;25.10;99.90
5009;DHT22;2523;51.058;6.922;2022-09-13T15:55:13;25.10;99.90
5009;DHT22;2523;51.058;6.922;2022-09-13T15:57:39;25.10;99.90
5009;DHT22;2523;51.058;6.922;2022-09-13T16:00:18;25.10;99.90
5009;DHT22;2523;51.058;6.922;2022-09-13T16:02:44;25.10;99.90
5009;DHT22;2523;51.058;6.922;2022-09-13T16:05:10;25.00;99.90
5009;DHT22;2523;51.058;6.922;2022-09-13T16:07:37;25.00;99.90
5009;DHT22;2523;51.058;6.922;2022-09-13T16:10:09;24.90;99.90
5009;DHT22;2523;51.058;6.922;2022-09-13T16:12:35;24.90;99.90
5009;DHT22;2523;51.058;6.922;2022-09-13T16:15:01;24.90;99.90
5009;DHT22;2523;51.058;6.922;2022-09-13T16:17:26;24.80;99.90
5009;DHT22;2523;51.058;6.922;2022-09-13T16:19:53;24.80;99.90
5009;DHT22;2523;51.058;6.922;2022-09-13T16:22:19;24.80;99.90
5009;DHT22;2523;51.058;6.922;2022-09-13T16:24:45;24.70;99.90
5009;DHT22;2523;51.058;6.922;2022-09-13T16:27:15;24.70;99.90
5009;DHT22;2523;51.058;6.922;2022-09-13T16:29:41;24.60;99.90
5009;DHT22;2523;51.058;6.922;2022-09-13T16:32:07;24.50;99.90
5009;DHT22;2523;51.058;6.922;2022-09-13T16:34:33;24.40;99.90
5009;DHT22;2523;51.058;6.922;2022-09-13T16:36:58;24.40;99.90
5009;DHT22;2523;51.058;6.922;2022-09-13T16:39:24;24.30;99.90
5009;DHT22;2523;51.058;6.922;2022-09-13T16:41:49;24.30;99.90
5009;DHT22;2523;51.058;6.922;2022-09-13T16:44:15;24.20;99.90
5009;DHT22;2523;51.058;6.922;2022-09-13T16:46:41;24.20;99.90
5009;DHT22;2523;51.058;6.922;2022-09-13T16:49:07;24.20;99.90
5009;DHT22;2523;51.058;6.922;2022-09-13T16:51:33;24.10;99.90
5009;DHT22;2523;51.058;6.922;2022-09-13T16:53:59;24.10;99.90
5009;DHT22;2523;51.058;6.922;2022-09-13T16:56:25;24.00;99.90
5009;DHT22;2523;51.058;6.922;2022-09-13T16:58:52;24.00;99.90
5009;DHT22;2523;51.058;6.922;2022-09-13T17:01:36;24.00;99.90
5009;DHT22;2523;51.058;6.922;2022-09-13T17:04:02;23.90;99.90
5009;DHT22;2523;51.058;6.922;2022-09-13T17:06:27;23.90;99.90
5009;DHT22;2523;51.058;6.922;2022-09-13T17:08:56;23.80;99.90
5009;DHT22;2523;51.058;6.922;2022-09-13T17:11:25;23.80;99.90
5009;DHT22;2523;51.058;6.922;2022-09-13T17:13:51;23.80;99.90
5009;DHT22;2523;51.058;6.922;2022-09-13T17:18:48;23.80;99.90
5009;DHT22;2523;51.058;6.922;2022-09-13T17:21:14;23.70;99.90
5009;DHT22;2523;51.058;6.922;2022-09-13T17:23:40;23.70;99.90
5009;DHT22;2523;51.058;6.922;2022-09-13T17:26:05;23.60;99.90
5009;DHT22;2523;51.058;6.922;2022-09-13T17:28:31;23.60;99.90
5009;DHT22;2523;51.058;6.922;2022-09-13T17:30:59;23.50;99.90
5009;DHT22;2523;51.058;6.922;2022-09-13T17:33:25;23.50;99.90
5009;DHT22;2523;51.058;6.922;2022-09-13T17:35:59;23.40;99.90
5009;DHT22;2523;51.058;6.922;2022-09-13T17:38:24;23.40;99.90
5009;DHT22;2523;51.058;6.922;2022-09-13T17:41:19;23.40;99.90
5009;DHT22;2523;51.058;6.922;2022-09-13T17:43:45;23.30;99.90
5009;DHT22;2523;51.058;6.922;2022-09-13T17:46:14;23.30;99.90
5009;DHT22;2523;51.058;6.922;2022-09-13T17:48:40;23.20;99.90
5009;DHT22;2523;51.058;6.922;2022-09-13T17:51:09;23.10;99.90
5009;DHT22;2523;51.058;6.922;2022-09-13T17:53:42;22.90;99.90
5009;DHT22;2523;51.058;6.922;2022-09-13T17:56:09;22.80;99.90
5009;DHT22;2523;51.058;6.922;2022-09-13T17:58:35;22.70;99.90
5009;DHT22;2523;51.058;6.922;2022-09-13T18:01:06;22.70;99.90
5009;DHT22;2523;51.058;6.922;2022-09-13T18:03:32;22.60;99.90
5009;DHT22;2523;51.058;6.922;2022-09-13T18:05:59;22.50;99.90
5009;DHT22;2523;51.058;6.922;2022-09-13T18:08:27;22.40;99.90
5009;DHT22;2523;51.058;6.922;2022-09-13T18:10:53;22.30;99.90
5009;DHT22;2523;51.058;6.922;2022-09-13T18:13:20;22.20;99.90
5009;DHT22;2523;51.058;6.922;2022-09-13T18:16:06;22.20;99.90
5009;DHT22;2523;51.058;6.922;2022-09-13T18:18:36;22.10;99.90
5009;DHT22;2523;51.058;6.922;2022-09-13T18:21:03;22.00;99.90
5009;DHT22;2523;51.058;6.922;2022-09-13T18:23:29;22.00;99.90
5009;DHT22;2523;51.058;6.922;2022-09-13T18:26:09;21.70;99.90
5009;DHT22;2523;51.058;6.922;2022-09-13T18:28:35;21.70;99.90
5009;DHT22;2523;51.058;6.922;2022-09-13T18:31:02;21.60;99.90
5009;DHT22;2523;51.058;6.922;2022-09-13T18:33:30;21.50;99.90
5009;DHT22;2523;51.058;6.922;2022-09-13T18:36:00;21.50;99.90
5009;DHT22;2523;51.058;6.922;2022-09-13T18:38:28;21.40;99.90
5009;DHT22;2523;51.058;6.922;2022-09-13T18:43:31;21.30;99.90
5009;DHT22;2523;51.058;6.922;2022-09-13T18:46:02;21.20;99.90
5009;DHT22;2523;51.058;6.922;2022-09-13T18:48:35;21.20;99.90
5009;DHT22;2523;51.058;6.922;2022-09-13T18:51:02;21.10;99.90
5009;DHT22;2523;51.058;6.922;2022-09-13T18:53:28;21.10;99.90
5009;DHT22;2523;51.058;6.922;2022-09-13T18:55:53;21.00;99.90
5009;DHT22;2523;51.058;6.922;2022-09-13T18:58:21;21.00;99.90
5009;DHT22;2523;51.058;6.922;2022-09-13T19:00:47;21.00;99.90
5009;DHT22;2523;51.058;6.922;2022-09-13T19:03:12;20.90;99.90
5009;DHT22;2523;51.058;6.922;2022-09-13T19:05:38;20.90;99.90
5009;DHT22;2523;51.058;6.922;2022-09-13T19:08:08;20.90;99.90
5009;DHT22;2523;51.058;6.922;2022-09-13T19:10:35;20.90;99.90
5009;DHT22;2523;51.058;6.922;2022-09-13T19:13:01;20.90;99.90
5009;DHT22;2523;51.058;6.922;2022-09-13T19:15:27;20.80;99.90
5009;DHT22;2523;51.058;6.922;2022-09-13T19:17:52;20.80;99.90
5009;DHT22;2523;51.058;6.922;2022-09-13T19:20:18;20.80;99.90
5009;DHT22;2523;51.058;6.922;2022-09-13T19:22:45;20.80;99.90
5009;DHT22;2523;51.058;6.922;2022-09-13T19:25:10;20.70;99.90